Time,TemperatureF,DewpointF,PressureIn,WindDirection,WindDirectionDegrees,WindSpeedMPH,WindSpeedGustMPH,Humidity,HourlyPrecipIn,Conditions,Clouds,dailyrainin,SoftwareType,DateUTC
2013-01-12 00:00:00,48.6,48.6,30.12,WSW,243,0.0,0.0,100,0.00,,,0.00,VWS V12.07,2013-01-12 05:00:00,
2013-01-12 00:10:00,48.6,48.6,30.12,WSW,243,0.0,0.0,100,0.00,,,0.00,VWS V12.07,2013-01-12 05:10:00,
2013-01-12 00:20:00,48.8,48.8,30.12,WSW,243,0.0,0.0,100,0.00,,,0.00,VWS V12.07,2013-01-12 05:20:00,
2013-01-12 00:30:00,48.8,48.8,30.12,WSW,243,0.0,0.0,100,0.00,,,0.00,VWS V12.07,2013-01-12 05:30:00,
2013-01-12 00:40:00,48.8,48.8,30.12,WSW,243,0.0,0.0,100,0.00,,,0.00,VWS V12.07,2013-01-12 05:40:00,
2013-01-12 00:50:00,48.8,48.8,30.11,WSW,243,0.0,0.0,100,0.00,,,0.00,VWS V12.07,2013-01-12 05:50:00,
2013-01-12 01:00:00,48.8,48.8,30.11,WSW,243,0.0,0.0,100,0.00,,,0.00,VWS V12.07,2013-01-12 06:00:00,
2013-01-12 01:10:00,48.6,48.6,30.11,WSW,243,0.0,0.0,100,0.00,,,0.00,VWS V12.07,2013-01-12 06:10:00,
2013-01-12 01:20:00,48.8,48.8,30.10,WSW,243,0.0,0.0,100,0.00,,,0.00,VWS V12.07,2013-01-12 06:20:00,
2013-01-12 01:30:00,49.1,49.1,30.10,WSW,243,0.0,0.0,100,0.00,,,0.00,VWS V12.07,2013-01-12 06:30:00,
2013-01-12 01:40:00,48.9,48.9,30.10,WSW,243,0.0,0.0,100,0.00,,,0.00,VWS V12.07,2013-01-12 06:40:00,
2013-01-12 01:50:00,48.9,48.9,30.10,WSW,243,0.0,0.0,100,0.00,,,0.00,VWS V12.07,2013-01-12 06:50:00,
2013-01-12 02:00:00,48.9,48.9,30.10,WSW,243,0.0,0.0,100,0.00,,,0.00,VWS V12.07,2013-01-12 07:00:00,
2013-01-12 02:10:00,48.9,48.9,30.10,WSW,243,0.0,0.0,100,0.00,,,0.00,VWS V12.07,2013-01-12 07:10:00,
2013-01-12 02:20:00,48.9,48.9,30.10,WSW,243,0.0,0.0,100,0.00,,,0.00,VWS V12.07,2013-01-12 07:20:00,
2013-01-12 02:30:00,49.1,49.1,30.10,WSW,243,0.0,0.0,100,0.00,,,0.00,VWS V12.07,2013-01-12 07:30:00,
2013-01-12 02:40:00,49.1,49.1,30.10,WSW,243,0.0,0.0,100,0.00,,,0.00,VWS V12.07,2013-01-12 07:40:00,
2013-01-12 02:50:00,49.1,49.1,30.10,WSW,243,0.0,0.0,100,0.00,,,0.00,VWS V12.07,2013-01-12 07:50:00,
2013-01-12 03:00:00,49.1,49.1,30.10,WSW,243,0.0,0.0,100,0.00,,,0.00,VWS V12.07,2013-01-12 08:00:00,
2013-01-12 03:10:00,49.1,49.1,30.10,WSW,243,0.0,0.0,100,0.00,,,0.00,VWS V12.07,2013-01-12 08:10:00,
2013-01-12 03:20:00,49.1,49.1,30.10,WSW,243,0.0,0.0,100,0.00,,,0.00,VWS V12.07,2013-01-12 08:20:00,
2013-01-12 03:30:00,49.1,49.1,30.08,WSW,243,0.0,0.0,100,0.00,,,0.00,VWS V12.07,2013-01-12 08:30:00,
2013-01-12 03:40:00,49.2,49.2,30.08,WSW,243,0.0,0.0,100,0.00,,,0.00,VWS V12.07,2013-01-12 08:40:00,
2013-01-12 03:50:00,49.2,49.2,30.08,WSW,243,0.0,0.0,100,0.00,,,0.00,VWS V12.07,2013-01-12 08:50:00,
2013-01-12 04:00:00,49.1,49.1,30.07,WSW,243,0.0,0.0,100,0.00,,,0.00,VWS V12.07,2013-01-12 09:00:00,
2013-01-12 04:10:00,49.1,49.1,30.07,WSW,243,0.0,0.0,100,0.00,,,0.00,VWS V12.07,2013-01-12 09:10:00,
2013-01-12 04:20:00,48.8,48.8,30.07,WSW,243,0.0,0.0,100,0.00,,,0.00,VWS V12.07,2013-01-12 09:20:00,
2013-01-12 04:30:00,48.5,48.5,30.07,WSW,243,0.0,0.0,100,0.00,,,0.00,VWS V12.07,2013-01-12 09:30:00,
2013-01-12 04:40:00,48.0,48.0,30.07,WSW,243,0.0,0.0,100,0.00,,,0.00,VWS V12.07,2013-01-12 09:40:00,
2013-01-12 04:50:00,47.9,47.9,30.07,WSW,243,0.0,2.0,100,0.00,,,0.00,VWS V12.07,2013-01-12 09:50:00,
2013-01-12 05:00:00,48.0,48.0,30.07,WSW,243,0.0,0.0,100,0.00,,,0.00,VWS V12.07,2013-01-12 10:00:00,
2013-01-12 05:10:00,47.7,47.7,30.07,WSW,243,0.0,0.0,100,0.00,,,0.00,VWS V12.07,2013-01-12 10:10:00,
2013-01-12 05:20:00,48.3,48.3,30.08,WSW,245,0.0,2.0,100,0.00,,,0.00,VWS V12.07,2013-01-12 10:20:00,
2013-01-12 05:30:00,48.6,48.6,30.08,WSW,257,0.0,4.0,100,0.00,,,0.00,VWS V12.07,2013-01-12 10:30:00,
2013-01-12 05:40:00,49.8,49.8,30.08,WNW,292,7.0,7.0,100,0.00,,,0.00,VWS V12.07,2013-01-12 10:40:00,
2013-01-12 05:50:00,53.6,53.6,30.06,WNW,292,3.0,7.0,100,0.00,,,0.00,VWS V12.07,2013-01-12 10:50:00,
2013-01-12 06:00:00,55.9,55.9,30.04,West,277,4.0,14.0,100,0.00,,,0.00,VWS V12.07,2013-01-12 11:00:00,
2013-01-12 06:10:00,56.5,56.5,30.04,WNW,300,3.0,13.0,100,0.00,,,0.00,VWS V12.07,2013-01-12 11:10:00,
2013-01-12 06:20:00,56.7,56.7,30.04,West,261,2.0,11.0,100,0.00,,,0.00,VWS V12.07,2013-01-12 11:20:00,
2013-01-12 06:30:00,56.5,56.2,30.05,WSW,253,3.0,12.0,99,0.00,,,0.00,VWS V12.07,2013-01-12 11:30:00,
2013-01-12 06:40:00,56.7,55.9,30.05,WSW,258,1.0,11.0,97,0.00,,,0.00,VWS V12.07,2013-01-12 11:40:00,
2013-01-12 06:50:00,56.6,55.5,30.06,West,259,3.0,8.0,96,0.00,,,0.00,VWS V12.07,2013-01-12 11:50:00,
2013-01-12 07:00:00,57.2,55.5,30.06,West,271,2.0,14.0,94,0.00,,,0.00,VWS V12.07,2013-01-12 12:00:00,
2013-01-12 07:10:00,57.3,55.0,30.06,WSW,257,2.0,10.0,92,0.00,,,0.00,VWS V12.07,2013-01-12 12:10:00,
2013-01-12 07:20:00,57.5,55.2,30.07,WSW,250,5.0,11.0,92,0.00,,,0.00,VWS V12.07,2013-01-12 12:20:00,
2013-01-12 07:30:00,57.8,54.9,30.07,WSW,246,3.0,13.0,90,0.00,,,0.00,VWS V12.07,2013-01-12 12:30:00,
2013-01-12 07:40:00,58.0,55.1,30.07,West,274,3.0,9.0,90,0.00,,,0.00,VWS V12.07,2013-01-12 12:40:00,
2013-01-12 07:50:00,58.1,54.9,30.07,West,265,0.0,12.0,89,0.00,,,0.00,VWS V12.07,2013-01-12 12:50:00,
2013-01-12 08:00:00,58.1,54.9,30.07,WNW,294,3.0,8.0,89,0.00,,,0.00,VWS V12.07,2013-01-12 13:00:00,
2013-01-12 08:10:00,58.3,55.1,30.07,WNW,286,0.0,7.0,89,0.00,,,0.00,VWS V12.07,2013-01-12 13:10:00,
2013-01-12 08:20:00,58.4,55.2,30.08,West,280,2.0,8.0,89,0.00,,,0.00,VWS V12.07,2013-01-12 13:20:00,
2013-01-12 08:30:00,58.7,55.2,30.08,WNW,297,1.0,11.0,88,0.00,,,0.00,VWS V12.07,2013-01-12 13:30:00,
2013-01-12 08:40:00,59.2,55.3,30.08,WSW,244,0.0,15.0,87,0.00,,,0.00,VWS V12.07,2013-01-12 13:40:00,
2013-01-12 08:50:00,59.2,55.3,30.08,West,261,7.0,10.0,87,0.00,,,0.00,VWS V12.07,2013-01-12 13:50:00,
2013-01-12 09:00:00,59.3,55.1,30.08,West,264,9.0,9.0,86,0.00,,,0.00,VWS V12.07,2013-01-12 14:00:00,
2013-01-12 09:10:00,59.6,55.1,30.08,WNW,291,0.0,12.0,85,0.00,,,0.00,VWS V12.07,2013-01-12 14:10:00,
2013-01-12 09:20:00,59.5,54.7,30.08,SW,217,2.0,9.0,84,0.00,,,0.00,VWS V12.07,2013-01-12 14:20:00,
2013-01-12 09:30:00,59.5,55.3,30.09,SW,217,0.0,5.0,86,0.00,,,0.00,VWS V12.07,2013-01-12 14:30:00,
2013-01-12 09:40:00,59.5,55.3,30.09,WSW,246,5.0,5.0,86,0.00,,,0.00,VWS V12.07,2013-01-12 14:40:00,
2013-01-12 09:50:00,60.2,54.7,30.09,WNW,300,6.0,14.0,82,0.00,,,0.00,VWS V12.07,2013-01-12 14:50:00,
2013-01-12 10:00:00,60.7,54.8,30.09,WSW,246,3.0,14.0,81,0.00,,,0.00,VWS V12.07,2013-01-12 15:00:00,
2013-01-12 10:10:00,60.9,54.7,30.09,WSW,257,5.0,15.0,80,0.00,,,0.00,VWS V12.07,2013-01-12 15:10:00,
2013-01-12 10:20:00,60.9,54.7,30.10,West,274,2.0,10.0,80,0.00,,,0.00,VWS V12.07,2013-01-12 15:20:00,
2013-01-12 10:30:00,60.9,54.7,30.10,WNW,284,1.0,13.0,80,0.00,,,0.00,VWS V12.07,2013-01-12 15:30:00,
2013-01-12 10:40:00,61.2,55.3,30.10,WNW,282,0.0,9.0,81,0.00,,,0.00,VWS V12.07,2013-01-12 15:40:00,
2013-01-12 10:50:00,61.3,54.7,30.09,WSW,246,2.0,12.0,79,0.00,,,0.00,VWS V12.07,2013-01-12 15:50:00,
2013-01-12 11:00:00,61.3,54.7,30.09,West,259,0.0,9.0,79,0.00,,,0.00,VWS V12.07,2013-01-12 16:00:00,
2013-01-12 11:10:00,61.6,55.0,30.09,WSW,247,7.0,10.0,79,0.00,,,0.00,VWS V12.07,2013-01-12 16:10:00,
2013-01-12 11:20:00,61.3,54.7,30.09,West,275,0.0,10.0,79,0.00,,,0.00,VWS V12.07,2013-01-12 16:20:00,
2013-01-12 11:30:00,61.0,54.8,30.08,West,261,3.0,10.0,80,0.00,,,0.00,VWS V12.07,2013-01-12 16:30:00,
2013-01-12 11:40:00,61.2,55.0,30.08,WSW,254,0.0,7.0,80,0.00,,,0.00,VWS V12.07,2013-01-12 16:40:00,
2013-01-12 11:50:00,61.8,55.6,30.08,South,178,0.0,4.0,80,0.00,,,0.00,VWS V12.07,2013-01-12 16:50:00,
2013-01-12 12:00:00,62.9,55.6,30.07,West,281,11.0,12.0,77,0.00,,,0.00,VWS V12.07,2013-01-12 17:00:00,
2013-01-12 12:10:00,63.2,54.4,30.07,WSW,243,3.0,11.0,73,0.00,,,0.00,VWS V12.07,2013-01-12 17:10:00,
2013-01-12 12:20:00,63.5,53.9,30.06,WNW,302,6.0,11.0,71,0.00,,,0.00,VWS V12.07,2013-01-12 17:20:00,
2013-01-12 12:30:00,64.0,54.0,30.05,SW,227,6.0,13.0,70,0.00,,,0.00,VWS V12.07,2013-01-12 17:30:00,
2013-01-12 12:40:00,64.5,53.3,30.05,West,261,13.0,15.0,67,0.00,,,0.00,VWS V12.07,2013-01-12 17:40:00,
2013-01-12 12:50:00,66.0,53.5,30.04,WNW,283,4.0,15.0,64,0.00,,,0.00,VWS V12.07,2013-01-12 17:50:00,
2013-01-12 13:00:00,66.4,54.3,30.03,West,259,4.0,15.0,65,0.00,,,0.00,VWS V12.07,2013-01-12 18:00:00,
2013-01-12 13:10:00,66.3,54.6,30.03,North,349,2.0,14.0,66,0.00,,,0.00,VWS V12.07,2013-01-12 18:10:00,
2013-01-12 13:20:00,65.6,54.4,30.04,West,281,10.0,19.0,67,0.00,,,0.00,VWS V12.07,2013-01-12 18:20:00,
2013-01-12 13:30:00,65.2,54.4,30.04,West,273,9.0,20.0,68,0.00,,,0.00,VWS V12.07,2013-01-12 18:30:00,
2013-01-12 13:40:00,65.0,54.2,30.04,West,265,6.0,14.0,68,0.00,,,0.00,VWS V12.07,2013-01-12 18:40:00,
2013-01-12 13:50:00,66.0,54.7,30.03,WNW,302,7.0,13.0,67,0.00,,,0.00,VWS V12.07,2013-01-12 18:50:00,
2013-01-12 14:00:00,66.0,54.3,30.04,WSW,254,3.0,14.0,66,0.00,,,0.00,VWS V12.07,2013-01-12 19:00:00,
2013-01-12 14:10:00,65.5,54.3,30.04,West,275,7.0,15.0,67,0.00,,,0.00,VWS V12.07,2013-01-12 19:10:00,
2013-01-12 14:20:00,65.6,54.0,30.03,West,273,10.0,15.0,66,0.00,,,0.00,VWS V12.07,2013-01-12 19:20:00,
2013-01-12 14:30:00,66.1,54.0,30.03,West,281,5.0,12.0,65,0.00,,,0.00,VWS V12.07,2013-01-12 19:30:00,
2013-01-12 14:40:00,66.8,54.2,30.03,WNW,296,0.0,16.0,64,0.00,,,0.00,VWS V12.07,2013-01-12 19:40:00,
2013-01-12 14:50:00,67.8,54.3,30.02,NW,310,4.0,14.0,62,0.00,,,0.00,VWS V12.07,2013-01-12 19:50:00,
2013-01-12 15:00:00,66.8,53.4,30.02,West,270,2.0,14.0,62,0.00,,,0.00,VWS V12.07,2013-01-12 20:00:00,
2013-01-12 15:10:00,66.4,53.9,30.02,West,278,0.0,5.0,64,0.00,,,0.00,VWS V12.07,2013-01-12 20:10:00,
2013-01-12 15:20:00,66.3,55.0,30.03,SSW,204,4.0,5.0,67,0.00,,,0.00,VWS V12.07,2013-01-12 20:20:00,
2013-01-12 15:30:00,65.3,56.0,30.03,West,260,0.0,5.0,72,0.00,,,0.00,VWS V12.07,2013-01-12 20:30:00,
2013-01-12 15:40:00,64.5,56.4,30.03,SW,235,0.0,5.0,75,0.00,,,0.00,VWS V12.07,2013-01-12 20:40:00,
2013-01-12 15:50:00,63.7,56.0,30.05,WSW,238,0.0,6.0,76,0.00,,,0.00,VWS V12.07,2013-01-12 20:50:00,
2013-01-12 16:00:00,63.7,56.0,30.04,WSW,238,0.0,2.0,76,0.00,,,0.00,VWS V12.07,2013-01-12 21:00:00,
2013-01-12 16:10:00,62.9,55.9,30.04,WSW,240,0.0,4.0,78,0.00,,,0.00,VWS V12.07,2013-01-12 21:10:00,
2013-01-12 16:20:00,62.0,55.8,30.05,WSW,248,4.0,6.0,80,0.00,,,0.00,VWS V12.07,2013-01-12 21:20:00,
2013-01-12 16:30:00,61.6,55.7,30.05,WSW,248,3.0,4.0,81,0.00,,,0.00,VWS V12.07,2013-01-12 21:30:00,
2013-01-12 16:40:00,61.6,55.7,30.05,WSW,248,3.0,5.0,81,0.00,,,0.00,VWS V12.07,2013-01-12 21:40:00,
2013-01-12 16:50:00,61.3,55.4,30.05,WSW,248,0.0,5.0,81,0.00,,,0.00,VWS V12.07,2013-01-12 21:50:00,
2013-01-12 17:00:00,61.2,55.3,30.06,WSW,252,2.0,5.0,81,0.00,,,0.00,VWS V12.07,2013-01-12 22:00:00,
2013-01-12 17:10:00,61.0,55.1,30.06,WSW,252,0.0,3.0,81,0.00,,,0.00,VWS V12.07,2013-01-12 22:10:00,
2013-01-12 17:20:00,60.5,54.7,30.03,WSW,252,0.0,0.0,81,0.00,,,0.00,VWS V12.07,2013-01-12 22:20:00,
2013-01-12 17:30:00,59.9,54.4,30.02,WSW,252,0.0,0.0,82,0.00,,,0.00,VWS V12.07,2013-01-12 22:30:00,
2013-01-12 17:40:00,59.0,54.2,30.02,WSW,252,0.0,0.0,84,0.00,,,0.00,VWS V12.07,2013-01-12 22:40:00,
2013-01-12 17:50:00,58.1,53.3,30.03,WSW,252,0.0,0.0,84,0.00,,,0.00,VWS V12.07,2013-01-12 22:50:00,
2013-01-12 18:00:00,56.9,52.8,30.03,WSW,252,0.0,1.0,86,0.00,,,0.00,VWS V12.07,2013-01-12 23:00:00,
2013-01-12 18:10:00,56.2,52.4,30.03,WSW,252,0.0,0.0,87,0.00,,,0.00,VWS V12.07,2013-01-12 23:10:00,
2013-01-12 18:20:00,55.3,51.8,30.04,WSW,252,0.0,0.0,88,0.00,,,0.00,VWS V12.07,2013-01-12 23:20:00,
2013-01-12 18:30:00,54.8,51.9,30.04,WSW,252,0.0,0.0,90,0.00,,,0.00,VWS V12.07,2013-01-12 23:30:00,
2013-01-12 18:40:00,55.6,53.6,30.04,SW,224,0.0,5.0,93,0.00,,,0.00,VWS V12.07,2013-01-12 23:40:00,
2013-01-12 18:50:00,56.3,54.3,30.04,SW,223,0.0,4.0,93,0.00,,,0.00,VWS V12.07,2013-01-12 23:50:00,
2013-01-12 19:00:00,57.2,55.5,30.03,South,190,0.0,6.0,94,0.00,,,0.00,VWS V12.07,2013-01-13 00:00:00,
2013-01-12 19:10:00,57.6,55.9,30.03,SE,135,2.0,7.0,94,0.00,,,0.00,VWS V12.07,2013-01-13 00:10:00,
2013-01-12 19:20:00,57.6,55.9,30.02,SSE,160,0.0,4.0,94,0.00,,,0.00,VWS V12.07,2013-01-13 00:20:00,
2013-01-12 19:30:00,57.6,55.9,30.02,ESE,121,2.0,5.0,94,0.00,,,0.00,VWS V12.07,2013-01-13 00:30:00,
2013-01-12 19:40:00,57.5,55.5,30.02,ESE,119,0.0,3.0,93,0.00,,,0.00,VWS V12.07,2013-01-13 00:40:00,
2013-01-12 19:50:00,57.5,55.5,30.02,SSW,202,3.0,11.0,93,0.00,,,0.00,VWS V12.07,2013-01-13 00:50:00,
2013-01-12 20:00:00,57.2,54.9,30.02,SSW,202,0.0,4.0,92,0.00,,,0.00,VWS V12.07,2013-01-13 01:00:00,
2013-01-12 20:10:00,56.9,54.6,30.02,SSW,196,0.0,6.0,92,0.00,,,0.00,VWS V12.07,2013-01-13 01:10:00,
2013-01-12 20:20:00,56.6,54.3,30.01,SSW,196,0.0,3.0,92,0.00,,,0.00,VWS V12.07,2013-01-13 01:20:00,
2013-01-12 20:30:00,56.3,53.7,30.02,South,185,0.0,3.0,91,0.00,,,0.00,VWS V12.07,2013-01-13 01:30:00,
2013-01-12 20:40:00,56.2,53.6,30.02,SSW,210,0.0,6.0,91,0.00,,,0.00,VWS V12.07,2013-01-13 01:40:00,
2013-01-12 20:50:00,55.9,53.3,30.02,SSW,210,0.0,1.0,91,0.00,,,0.00,VWS V12.07,2013-01-13 01:50:00,
2013-01-12 21:00:00,55.3,52.7,30.02,SSW,210,0.0,0.0,91,0.00,,,0.00,VWS V12.07,2013-01-13 02:00:00,
2013-01-12 21:10:00,54.8,52.2,30.02,SSW,210,0.0,0.0,91,0.00,,,0.00,VWS V12.07,2013-01-13 02:10:00,
2013-01-12 21:20:00,54.8,52.5,30.02,SSE,159,0.0,2.0,92,0.00,,,0.00,VWS V12.07,2013-01-13 02:20:00,
2013-01-12 21:30:00,55.4,53.7,30.02,WSW,248,1.0,7.0,94,0.00,,,0.00,VWS V12.07,2013-01-13 02:30:00,
2013-01-12 21:40:00,55.7,54.0,30.02,WSW,252,1.0,7.0,94,0.00,,,0.00,VWS V12.07,2013-01-13 02:40:00,
2013-01-12 21:50:00,55.4,53.4,30.01,WSW,252,0.0,1.0,93,0.00,,,0.00,VWS V12.07,2013-01-13 02:50:00,
2013-01-12 22:00:00,55.0,53.0,30.00,WSW,252,0.0,2.0,93,0.00,,,0.00,VWS V12.07,2013-01-13 03:00:00,
2013-01-12 22:10:00,54.4,52.1,30.00,SSW,213,0.0,4.0,92,0.00,,,0.00,VWS V12.07,2013-01-13 03:10:00,
2013-01-12 22:20:00,54.1,51.8,30.01,SW,234,2.0,4.0,92,0.00,,,0.00,VWS V12.07,2013-01-13 03:20:00,
2013-01-12 22:30:00,54.5,52.5,30.00,WSW,252,4.0,5.0,93,0.00,,,0.00,VWS V12.07,2013-01-13 03:30:00,
2013-01-12 22:40:00,54.8,52.5,30.00,WSW,252,4.0,5.0,92,0.00,,,0.00,VWS V12.07,2013-01-13 03:40:00,
2013-01-12 22:50:00,55.1,52.5,30.00,WSW,252,3.0,7.0,91,0.00,,,0.00,VWS V12.07,2013-01-13 03:50:00,
2013-01-12 23:00:00,55.6,52.7,30.00,SW,234,2.0,10.0,90,0.00,,,0.00,VWS V12.07,2013-01-13 04:00:00,
2013-01-12 23:10:00,55.7,52.2,30.00,WSW,252,2.0,5.0,88,0.00,,,0.00,VWS V12.07,2013-01-13 04:10:00,
2013-01-12 23:20:00,56.2,52.7,29.99,West,260,4.0,6.0,88,0.00,,,0.00,VWS V12.07,2013-01-13 04:20:00,
2013-01-12 23:30:00,56.5,52.7,29.99,NW,309,12.0,12.0,87,0.00,,,0.00,VWS V12.07,2013-01-13 04:30:00,
2013-01-12 23:40:00,56.9,52.8,29.99,NW,312,3.0,16.0,86,0.00,,,0.00,VWS V12.07,2013-01-13 04:40:00,
2013-01-12 23:50:00,57.0,52.5,29.99,SW,236,0.0,11.0,85,0.00,,,0.00,VWS V12.07,2013-01-13 04:50:00,